Time;durP1;ratioP1;P1;durP2;ratioP2;P2;SDS_P1;SDS_P2;PMS_P1;PMS_P2;Temp;Humidity;BMP_temperature;BMP_pressure;BME280_temperature;BME280_humidity;BME280_pressure;Samples;Min_cycle;Max_cycle;Signal;HPM_P1;HPM_P2
2023/11/02 00:00:35;;;;;;;;;;;9.60;99.90;;;;;;5049042;28;19912;-90
2023/11/02 00:03:05;;;;;;;;;;;9.70;99.90;;;;;;5032408;28;19913;-90
2023/11/02 00:05:39;;;;;;;;;;;9.70;99.90;;;;;;5029184;28;19949;-89
2023/11/02 00:08:06;;;;;;;;;;;9.70;99.90;;;;;;5048299;28;19912;-90
2023/11/02 00:10:33;;;;;;;;;;;9.70;99.90;;;;;;5050829;28;20004;-89
2023/11/02 00:12:59;;;;;;;;;;;9.70;99.90;;;;;;5033384;28;19909;-89
2023/11/02 00:15:27;;;;;;;5.07;1.80;;;9.70;99.90;;;;;;5049537;28;19982;-88
2023/11/02 00:17:58;;;;;;;4.53;1.15;;;9.70;99.90;;;;;;5047260;28;20049;-89
2023/11/02 00:20:33;;;;;;;6.90;1.25;;;9.70;99.90;;;;;;5043235;28;20493;-90
2023/11/02 00:22:59;;;;;;;3.20;1.23;;;9.70;99.90;;;;;;5048649;28;20059;-89
2023/11/02 00:25:49;;;;;;;3.22;1.13;;;9.60;99.90;;;;;;5032716;28;20028;-89
2023/11/02 00:28:14;;;;;;;3.13;1.10;;;9.70;99.90;;;;;;5045632;28;20021;-90
2023/11/02 00:30:44;;;;;;;4.35;1.25;;;9.70;99.90;;;;;;5031451;28;20039;-89
2023/11/02 00:33:12;;;;;;;3.13;1.20;;;9.70;99.90;;;;;;5029901;28;20033;-90
2023/11/02 00:35:43;;;;;;;4.78;1.20;;;9.70;99.90;;;;;;5047908;28;20104;-91
2023/11/02 00:38:08;;;;;;;4.07;1.20;;;9.70;99.90;;;;;;5044882;28;20116;-90
2023/11/02 00:40:34;;;;;;;6.32;1.27;;;9.70;99.90;;;;;;5045556;28;20119;-90
2023/11/02 00:43:00;;;;;;;2.38;0.98;;;9.80;99.90;;;;;;5048215;28;20025;-90
2023/11/02 00:45:26;;;;;;;4.15;1.20;;;9.80;99.90;;;;;;5048100;28;20036;-91
2023/11/02 00:47:51;;;;;;;6.72;1.48;;;9.80;99.90;;;;;;5031778;28;20049;-89
2023/11/02 00:50:51;;;;;;;5.95;1.30;;;9.70;99.90;;;;;;5048329;28;20052;-90
2023/11/02 00:53:17;;;;;;;2.58;1.10;;;9.80;99.90;;;;;;5046684;28;20045;-90
2023/11/02 00:55:43;;;;;;;5.18;1.23;;;9.80;99.90;;;;;;5030931;28;20075;-89
2023/11/02 00:58:11;;;;;;;5.28;1.35;;;9.80;99.90;;;;;;5028456;28;20037;-89
2023/11/02 01:00:57;;;;;;;8.05;1.58;;;9.80;99.90;;;;;;5029819;28;20086;-90
2023/11/02 01:03:26;;;;;;;4.68;1.17;;;9.80;99.90;;;;;;5029209;28;20041;-89
2023/11/02 01:05:52;;;;;;;3.90;1.20;;;9.80;99.90;;;;;;5029606;28;20795;-90
2023/11/02 01:08:29;;;;;;;4.85;1.30;;;9.80;99.90;;;;;;5042313;28;20051;-90
2023/11/02 01:10:55;;;;;;;3.17;1.20;;;9.80;99.90;;;;;;5048145;28;20031;-90
2023/11/02 01:13:21;;;;;;;7.68;1.08;;;7.80;99.90;;;;;;5031999;28;20407;-90
2023/11/02 01:16:07;;;;;;;3.80;1.30;;;9.90;99.90;;;;;;5026633;28;20397;-89
2023/11/02 01:18:34;;;;;;;6.82;1.60;;;9.90;99.90;;;;;;5026734;28;20385;-91
2023/11/02 01:21:06;;;;;;;6.25;1.38;;;10.00;99.90;;;;;;5048790;28;20119;-90
2023/11/02 01:23:33;;;;;;;6.78;1.42;;;9.90;99.90;;;;;;5049330;28;20035;-90
2023/11/02 01:26:06;;;;;;;5.60;1.30;;;9.90;99.90;;;;;;5044482;28;20043;-91
2023/11/02 01:28:50;;;;;;;4.57;1.40;;;10.00;99.90;;;;;;5033016;28;20033;-89
2023/11/02 01:31:19;;;;;;;6.28;1.98;;;10.10;99.90;;;;;;5049945;28;20031;-91
2023/11/02 01:33:59;;;;;;;4.22;1.30;;;10.20;99.90;;;;;;5048646;28;20067;-90
2023/11/02 01:36:33;;;;;;;7.50;1.33;;;10.40;99.90;;;;;;5050410;28;20037;-90
2023/11/02 01:39:28;;;;;;;4.70;1.30;;;10.30;99.90;;;;;;5051493;28;20037;-90
2023/11/02 01:42:08;;;;;;;5.97;1.50;;;10.40;99.90;;;;;;5047722;28;20028;-90
2023/11/02 01:44:58;;;;;;;6.18;1.38;;;10.40;99.90;;;;;;5041959;28;20103;-90
2023/11/02 01:47:49;;;;;;;3.28;1.20;;;10.40;99.90;;;;;;5037097;28;20046;-90
2023/11/02 01:50:29;;;;;;;4.93;1.30;;;10.50;99.90;;;;;;5009481;28;20105;-90
2023/11/02 01:53:10;;;;;;;4.40;1.20;;;10.50;99.90;;;;;;5009723;28;20113;-91
2023/11/02 01:55:38;;;;;;;6.70;1.75;;;10.50;99.90;;;;;;5012321;28;20030;-90
2023/11/02 01:58:19;;;;;;;4.40;1.50;;;10.50;99.90;;;;;;5011020;28;20105;-90
2023/11/02 02:01:22;;;;;;;4.78;1.50;;;10.50;99.90;;;;;;5023209;28;20069;-90
2023/11/02 02:03:56;;;;;;;4.20;1.50;;;10.50;99.90;;;;;;4992026;28;20069;-90
2023/11/02 02:06:47;;;;;;;5.68;1.40;;;10.50;99.90;;;;;;5026386;28;20061;-89
2023/11/02 02:09:37;;;;;;;4.38;1.50;;;10.50;99.90;;;;;;5010950;28;20038;-90
2023/11/02 02:12:43;;;;;;;9.38;1.70;;;10.50;99.90;;;;;;5024726;28;20030;-90
2023/11/02 02:15:37;;;;;;;6.32;1.65;;;10.50;99.90;;;;;;5009088;28;20855;-91
2023/11/02 02:18:20;;;;;;;7.75;2.03;;;10.50;99.90;;;;;;5001502;28;20045;-91
2023/11/02 02:20:50;;;;;;;5.95;1.50;;;10.50;99.90;;;;;;5003204;28;20041;-89
2023/11/02 02:23:54;;;;;;;5.53;1.30;;;10.50;99.90;;;;;;5009524;28;20508;-91
2023/11/02 02:26:35;;;;;;;5.13;1.70;;;10.60;99.90;;;;;;4969453;28;20117;-90
2023/11/02 02:29:09;;;;;;;5.28;1.70;;;10.50;99.90;;;;;;5025609;28;20466;-91
2023/11/02 02:31:54;;;;;;;6.18;1.90;;;10.50;99.90;;;;;;5024041;28;20034;-89
2023/11/02 02:34:43;;;;;;;5.88;1.65;;;10.50;99.90;;;;;;5011249;28;20949;-90
2023/11/02 02:37:31;;;;;;;7.75;2.05;;;10.50;99.90;;;;;;5023555;28;20749;-89
2023/11/02 02:40:08;;;;;;;5.10;1.65;;;10.40;99.90;;;;;;5008594;28;20048;-89
2023/11/02 02:42:38;;;;;;;6.50;1.90;;;10.40;99.90;;;;;;5010298;28;20029;-89
2023/11/02 02:45:09;;;;;;;4.93;1.55;;;10.40;99.90;;;;;;5010709;28;20024;-89
2023/11/02 02:47:37;;;;;;;5.40;1.63;;;10.40;99.90;;;;;;5011376;28;20054;-91
2023/11/02 02:50:03;;;;;;;6.93;1.95;;;10.40;99.90;;;;;;5010696;28;20579;-90
2023/11/02 02:52:31;;;;;;;7.43;1.90;;;10.40;99.90;;;;;;5008951;28;20048;-90
2023/11/02 02:54:59;;;;;;;10.48;1.85;;;10.50;99.90;;;;;;5026704;28;20037;-90
2023/11/02 02:57:30;;;;;;;3.70;1.50;;;10.50;99.90;;;;;;5004291;28;20185;-90
2023/11/02 02:59:59;;;;;;;6.88;1.70;;;10.50;99.90;;;;;;5010958;28;20040;-90
2023/11/02 03:02:32;;;;;;;6.90;1.90;;;10.40;99.90;;;;;;5008722;28;20053;-90
2023/11/02 03:04:58;;;;;;;6.70;1.40;;;10.40;99.90;;;;;;5005530;28;20032;-90
2023/11/02 03:07:27;;;;;;;5.15;1.50;;;10.50;99.90;;;;;;5008854;28;20046;-91
2023/11/02 03:09:59;;;;;;;4.40;1.47;;;10.60;99.90;;;;;;5009726;28;20076;-91
2023/11/02 03:12:34;;;;;;;4.80;1.60;;;10.60;99.90;;;;;;5023667;28;20612;-89
2023/11/02 03:15:05;;;;;;;4.55;1.38;;;10.60;99.90;;;;;;5005953;28;20112;-90
2023/11/02 03:17:43;;;;;;;4.60;1.33;;;10.50;99.90;;;;;;5006527;28;20121;-91
2023/11/02 03:20:10;;;;;;;4.35;1.40;;;10.60;99.90;;;;;;5008495;28;20026;-91
2023/11/02 03:22:37;;;;;;;8.70;1.65;;;10.60;99.90;;;;;;5007529;28;20048;-89
2023/11/02 03:25:30;;;;;;;4.03;1.45;;;10.70;99.90;;;;;;5024142;28;20053;-89
2023/11/02 03:28:22;;;;;;;5.85;1.42;;;10.70;99.90;;;;;;5004504;28;20675;-90
2023/11/02 03:31:01;;;;;;;5.18;1.38;;;10.60;99.90;;;;;;5024248;28;20029;-89
2023/11/02 03:33:49;;;;;;;7.30;1.60;;;10.70;99.90;;;;;;5004967;28;20497;-89
2023/11/02 03:36:21;;;;;;;4.78;1.55;;;10.70;99.90;;;;;;5007954;28;20030;-89
2023/11/02 03:39:11;;;;;;;8.48;1.65;;;10.70;99.90;;;;;;5008425;28;20041;-89
2023/11/02 03:41:56;;;;;;;6.60;1.50;;;10.70;99.90;;;;;;5007190;28;20076;-89
2023/11/02 03:44:57;;;;;;;5.90;1.75;;;10.70;99.90;;;;;;5008683;28;20033;-88
2023/11/02 03:48:00;;;;;;;3.80;1.13;;;10.70;99.90;;;;;;5000019;28;20041;-89
2023/11/02 03:51:01;;;;;;;7.55;1.48;;;10.70;99.90;;;;;;5024435;28;20091;-89
2023/11/02 03:54:07;;;;;;;4.40;1.20;;;10.80;99.90;;;;;;4996487;28;20048;-89
2023/11/02 03:56:59;;;;;;;5.57;1.42;;;10.80;99.90;;;;;;5002843;28;20046;-89
2023/11/02 03:59:28;;;;;;;4.50;1.10;;;10.80;99.90;;;;;;4998687;28;20049;-89
2023/11/02 04:02:06;;;;;;;4.28;1.10;;;10.90;99.90;;;;;;5010524;28;20041;-89
2023/11/02 04:04:39;;;;;;;5.70;1.40;;;10.90;99.90;;;;;;5006791;28;20037;-88
2023/11/02 04:07:35;;;;;;;5.63;1.20;;;10.90;99.90;;;;;;5009602;28;20417;-88
2023/11/02 04:10:08;;;;;;;3.17;1.10;;;11.00;99.90;;;;;;5008248;28;20057;-89
2023/11/02 04:13:13;;;;;;;6.20;1.42;;;11.00;99.90;;;;;;5004745;28;20034;-88
2023/11/02 04:15:39;;;;;;;2.92;1.00;;;11.00;99.90;;;;;;4975388;28;20038;-90
2023/11/02 04:18:04;;;;;;;6.43;1.23;;;11.00;99.90;;;;;;5021308;28;20034;-90
2023/11/02 04:20:30;;;;;;;3.70;1.00;;;11.00;99.90;;;;;;5004256;28;20026;-89
2023/11/02 04:22:57;;;;;;;8.45;1.60;;;11.00;99.90;;;;;;5023682;28;20030;-89
2023/11/02 04:25:23;;;;;;;6.80;1.60;;;10.90;99.90;;;;;;5005637;28;20092;-89
2023/11/02 04:27:49;;;;;;;2.92;1.00;;;10.90;99.90;;;;;;5006427;28;20026;-88
2023/11/02 04:30:15;;;;;;;3.83;1.30;;;;;;;;;;5008580;28;20068;-89
2023/11/02 04:32:42;;;;;;;2.83;1.00;;;;;;;;;;5019878;28;20106;-88
2023/11/02 04:35:09;;;;;;;8.38;1.40;;;10.90;99.90;;;;;;5007888;28;20492;-88
2023/11/02 04:37:35;;;;;;;3.72;1.17;;;;;;;;;;5023293;28;20038;-89
2023/11/02 04:40:01;;;;;;;5.25;1.40;;;11.10;99.90;;;;;;5023989;28;20025;-89
2023/11/02 04:42:27;;;;;;;6.43;1.40;;;11.10;99.90;;;;;;5021211;28;20084;-88
2023/11/02 04:44:55;;;;;;;7.03;1.45;;;;;;;;;;5022702;28;20577;-90
2023/11/02 04:47:21;;;;;;;6.60;1.30;;;11.10;99.90;;;;;;5007346;28;20054;-90
2023/11/02 04:49:47;;;;;;;7.70;1.15;;;11.10;99.90;;;;;;5008524;28;20476;-89
2023/11/02 04:52:13;;;;;;;3.40;1.10;;;11.10;99.90;;;;;;5007182;28;20375;-91
2023/11/02 04:54:38;;;;;;;7.85;1.30;;;11.10;99.90;;;;;;5007033;28;20061;-90
2023/11/02 04:57:04;;;;;;;2.60;1.10;;;11.10;99.90;;;;;;5011516;28;20121;-90
2023/11/02 04:59:43;;;;;;;6.10;1.20;;;11.10;99.90;;;;;;5028317;28;20040;-91
2023/11/02 05:02:10;;;;;;;4.72;1.30;;;11.00;99.90;;;;;;5027549;28;20026;-91
2023/11/02 05:04:36;;;;;;;5.47;1.30;;;11.00;99.90;;;;;;5009362;28;20033;-89
2023/11/02 05:07:02;;;;;;;6.90;1.30;;;10.90;99.90;;;;;;5027027;28;20053;-90
2023/11/02 05:09:27;;;;;;;2.65;0.93;;;10.90;99.90;;;;;;5014125;28;20022;-90
2023/11/02 05:11:54;;;;;;;6.43;1.23;;;10.80;99.90;;;;;;5008812;28;20052;-90
2023/11/02 05:14:19;;;;;;;3.95;1.13;;;10.80;99.90;;;;;;5027924;28;20033;-90
2023/11/02 05:16:45;;;;;;;4.15;1.10;;;10.80;99.90;;;;;;5024674;28;20034;-90
2023/11/02 05:19:10;;;;;;;4.25;1.20;;;10.80;99.90;;;;;;5013601;28;20030;-90
2023/11/02 05:21:37;;;;;;;5.93;1.35;;;10.90;99.90;;;;;;5011821;28;20038;-89
2023/11/02 05:24:03;;;;;;;3.72;1.10;;;10.90;99.90;;;;;;5013110;28;20036;-88
2023/11/02 05:26:31;;;;;;;6.63;1.30;;;10.90;99.90;;;;;;5011227;28;20080;-90
2023/11/02 05:28:57;;;;;;;5.38;1.25;;;10.90;99.90;;;;;;5011025;28;20019;-91
2023/11/02 05:31:22;;;;;;;3.95;1.15;;;10.90;99.90;;;;;;5027368;28;20033;-88
2023/11/02 05:33:48;;;;;;;3.83;1.10;;;11.00;99.90;;;;;;5016198;28;20754;-90
2023/11/02 05:36:14;;;;;;;4.57;1.48;;;11.00;99.90;;;;;;5023912;28;20026;-90
2023/11/02 05:38:40;;;;;;;3.97;1.08;;;;;;;;;;5026742;28;20041;-90
2023/11/02 05:41:05;;;;;;;3.15;0.98;;;11.00;99.90;;;;;;5010703;28;20121;-90
2023/11/02 05:43:31;;;;;;;4.93;1.10;;;11.10;99.90;;;;;;5010774;28;20160;-90
2023/11/02 05:45:57;;;;;;;3.05;1.05;;;11.10;99.90;;;;;;5013162;28;20506;-90
2023/11/02 05:48:24;;;;;;;2.80;0.95;;;11.20;99.90;;;;;;5030151;28;20069;-91
2023/11/02 05:50:50;;;;;;;10.38;1.20;;;11.20;99.90;;;;;;5014641;28;20049;-89
2023/11/02 05:53:16;;;;;;;3.70;1.20;;;11.20;99.90;;;;;;5013195;28;21050;-90
2023/11/02 05:55:41;;;;;;;1.63;0.73;;;11.20;99.90;;;;;;5011184;28;20061;-90
2023/11/02 05:58:07;;;;;;;2.92;1.15;;;11.20;99.90;;;;;;5030945;28;20029;-89
2023/11/02 06:00:33;;;;;;;3.85;1.40;;;11.20;99.90;;;;;;5027974;28;20022;-90
2023/11/02 06:02:58;;;;;;;2.33;0.93;;;11.20;99.90;;;;;;5015177;28;20045;-90
2023/11/02 06:05:24;;;;;;;3.42;1.10;;;11.30;99.90;;;;;;5028155;28;20022;-90
2023/11/02 06:07:49;;;;;;;1.52;0.80;;;11.30;99.90;;;;;;5010253;28;21030;-91
2023/11/02 06:10:15;;;;;;;3.70;1.15;;;11.30;99.90;;;;;;5013921;28;20037;-90
2023/11/02 06:12:41;;;;;;;4.20;1.20;;;11.20;99.90;;;;;;5014300;28;20396;-90
2023/11/02 06:15:08;;;;;;;4.25;0.88;;;11.20;99.90;;;;;;5024070;28;20026;-89
2023/11/02 06:17:33;;;;;;;8.73;1.17;;;11.30;99.90;;;;;;5013511;28;20037;-90
2023/11/02 06:19:59;;;;;;;3.85;1.30;;;11.30;99.90;;;;;;5011952;28;20030;-89
2023/11/02 06:22:24;;;;;;;3.53;1.33;;;11.40;99.90;;;;;;5013315;28;20481;-88
2023/11/02 06:24:50;;;;;;;2.25;0.90;;;11.30;99.90;;;;;;5013301;28;20053;-90
2023/11/02 06:27:16;;;;;;;3.60;0.90;;;11.40;99.90;;;;;;5011084;28;20002;-88
2023/11/02 06:29:42;;;;;;;2.72;0.80;;;11.30;99.90;;;;;;5012719;28;20061;-88
2023/11/02 06:32:08;;;;;;;2.90;1.35;;;11.30;99.90;;;;;;5007667;28;20022;-90
2023/11/02 06:34:38;;;;;;;3.13;0.80;;;11.30;99.90;;;;;;5012869;28;20021;-90
2023/11/02 06:37:06;;;;;;;3.53;1.00;;;11.30;99.90;;;;;;5024492;28;20485;-88
2023/11/02 06:39:33;;;;;;;2.17;0.90;;;11.40;99.90;;;;;;5019380;28;20026;-89
2023/11/02 06:41:59;;;;;;;4.97;1.10;;;;;;;;;;5010062;28;20084;-89
2023/11/02 06:44:25;;;;;;;2.00;0.82;;;11.50;99.90;;;;;;5011055;28;20041;-89
2023/11/02 06:46:52;;;;;;;2.97;0.77;;;11.40;99.90;;;;;;5031154;28;20025;-89
2023/11/02 06:49:18;;;;;;;5.50;1.27;;;11.50;99.90;;;;;;5033562;28;20021;-90
2023/11/02 06:51:44;;;;;;;3.85;1.10;;;11.50;99.90;;;;;;5029674;28;20029;-89
2023/11/02 06:54:10;;;;;;;2.80;1.00;;;11.50;99.90;;;;;;5050933;28;20037;-89
2023/11/02 06:56:36;;;;;;;4.50;1.00;;;11.50;99.90;;;;;;5048548;28;20036;-87
2023/11/02 06:59:01;;;;;;;4.80;1.08;;;11.50;99.90;;;;;;5035991;28;20020;-90
2023/11/02 07:01:27;;;;;;;3.25;0.90;;;11.60;99.90;;;;;;5050758;28;20025;-89
2023/11/02 07:03:53;;;;;;;5.13;1.05;;;11.60;99.90;;;;;;5049902;28;20528;-91
2023/11/02 07:06:19;;;;;;;4.40;0.95;;;11.60;99.90;;;;;;5050835;28;20023;-91
2023/11/02 07:08:44;;;;;;;2.35;0.90;;;11.70;99.90;;;;;;5047125;28;20116;-90
2023/11/02 07:11:11;;;;;;;2.33;0.90;;;11.80;99.90;;;;;;5049669;28;20127;-88
2023/11/02 07:13:36;;;;;;;2.78;0.80;;;11.80;99.90;;;;;;5028968;28;20120;-89
2023/11/02 07:16:03;;;;;;;2.70;0.90;;;11.80;99.90;;;;;;5028988;28;20120;-89
2023/11/02 07:18:29;;;;;;;4.85;1.00;;;11.80;99.90;;;;;;5031622;28;20029;-89
2023/11/02 07:20:54;;;;;;;4.25;1.25;;;11.80;99.90;;;;;;5049551;28;20707;-88
2023/11/02 07:23:20;;;;;;;2.10;0.90;;;11.80;99.90;;;;;;5049742;28;20052;-91
2023/11/02 07:25:46;;;;;;;2.95;1.00;;;11.90;99.90;;;;;;5027666;28;20465;-90
2023/11/02 07:28:12;;;;;;;3.53;1.00;;;11.90;99.90;;;;;;5045242;28;20104;-89
2023/11/02 07:30:37;;;;;;;3.38;0.95;;;11.90;99.90;;;;;;5040227;28;20033;-88
2023/11/02 07:33:03;;;;;;;3.17;0.80;;;11.90;99.90;;;;;;5051021;28;20041;-90
2023/11/02 07:35:29;;;;;;;1.80;0.80;;;11.90;99.90;;;;;;5050126;28;20147;-89
2023/11/02 07:37:55;;;;;;;4.53;1.10;;;11.70;99.90;;;;;;5051665;28;20543;-89
2023/11/02 07:40:21;;;;;;;2.55;1.00;;;11.70;99.90;;;;;;5033473;28;20067;-89
2023/11/02 07:42:47;;;;;;;2.65;0.93;;;11.40;99.90;;;;;;5047093;28;20057;-90
2023/11/02 07:45:12;;;;;;;3.03;1.00;;;11.30;99.90;;;;;;5030924;28;20383;-91
2023/11/02 07:47:38;;;;;;;2.17;0.80;;;11.20;99.90;;;;;;5050092;28;20128;-91
2023/11/02 07:50:05;;;;;;;2.80;0.90;;;11.00;99.90;;;;;;5049129;28;20025;-91
2023/11/02 07:52:31;;;;;;;3.67;1.10;;;10.90;99.90;;;;;;5027029;28;20017;-92
2023/11/02 07:54:57;;;;;;;3.28;1.10;;;10.80;99.90;;;;;;5047343;28;20025;-90
2023/11/02 07:57:23;;;;;;;2.78;1.10;;;10.70;99.90;;;;;;5047828;28;20029;-90
2023/11/02 07:59:52;;;;;;;4.32;0.93;;;10.70;99.90;;;;;;5051020;28;20040;-90
2023/11/02 08:02:19;;;;;;;3.00;1.00;;;10.60;99.90;;;;;;5049137;28;20033;-90
2023/11/02 08:04:45;;;;;;;4.40;1.30;;;10.50;99.90;;;;;;5050340;28;20045;-91
2023/11/02 08:07:11;;;;;;;3.90;1.00;;;10.60;99.90;;;;;;5024648;28;20063;-90
2023/11/02 08:09:37;;;;;;;2.58;1.00;;;10.60;99.90;;;;;;5049884;28;20757;-90
2023/11/02 08:12:08;;;;;;;2.28;0.90;;;10.60;99.90;;;;;;5049519;28;20028;-90
2023/11/02 08:14:35;;;;;;;4.25;1.05;;;10.60;99.90;;;;;;5046657;28;20643;-90
2023/11/02 08:17:01;;;;;;;3.65;1.10;;;10.70;99.90;;;;;;5033688;28;20480;-90
2023/11/02 08:19:27;;;;;;;2.67;0.90;;;10.70;99.90;;;;;;5045667;28;20025;-89
2023/11/02 08:21:52;;;;;;;2.47;0.90;;;10.70;99.90;;;;;;5047073;28;20117;-90
2023/11/02 08:24:18;;;;;;;1.73;0.80;;;10.70;99.90;;;;;;5028377;28;20032;-90
2023/11/02 08:26:47;;;;;;;3.45;0.90;;;10.70;99.90;;;;;;5045338;28;20037;-90
2023/11/02 08:29:13;;;;;;;5.47;1.23;;;10.70;99.90;;;;;;5048477;28;20646;-89
2023/11/02 08:31:39;;;;;;;3.78;1.00;;;10.80;99.90;;;;;;5031339;28;20025;-89
2023/11/02 08:34:05;;;;;;;1.33;0.88;;;10.80;99.90;;;;;;5034895;28;20485;-89
2023/11/02 08:36:31;;;;;;;3.00;0.93;;;10.80;99.90;;;;;;5024812;28;20760;-90
2023/11/02 08:38:57;;;;;;;3.75;1.13;;;;;;;;;;5038070;28;20119;-89
2023/11/02 08:41:27;;;;;;;4.78;1.17;;;10.90;99.90;;;;;;5037000;28;20038;-91
2023/11/02 08:43:53;;;;;;;3.08;1.00;;;11.00;99.90;;;;;;5054178;28;20563;-89
2023/11/02 08:46:22;;;;;;;1.92;0.82;;;11.00;99.90;;;;;;5037401;28;20567;-90
2023/11/02 08:48:49;;;;;;;3.28;1.00;;;11.10;99.90;;;;;;5049488;28;20095;-90
2023/11/02 08:51:16;;;;;;;3.58;1.20;;;11.10;99.90;;;;;;5049716;28;20036;-90
2023/11/02 08:53:42;;;;;;;4.55;1.13;;;11.00;99.90;;;;;;5038234;28;20037;-89
2023/11/02 08:56:09;;;;;;;5.03;1.20;;;;;;;;;;5049856;28;20029;-90
2023/11/02 08:58:46;;;;;;;3.03;1.25;;;11.00;99.90;;;;;;5030523;28;20037;-89
2023/11/02 09:01:22;;;;;;;3.55;1.17;;;11.00;99.90;;;;;;5052000;28;20079;-89
2023/11/02 09:03:50;;;;;;;3.05;1.08;;;11.00;99.90;;;;;;5047916;28;20021;-89
2023/11/02 09:06:16;;;;;;;3.03;1.00;;;10.90;99.90;;;;;;5048328;28;20040;-90
2023/11/02 09:08:42;;;;;;;3.58;1.10;;;11.00;99.90;;;;;;5050855;28;20029;-89
2023/11/02 09:11:08;;;;;;;2.50;0.80;;;11.10;99.90;;;;;;5035469;28;20087;-90
2023/11/02 09:13:33;;;;;;;2.55;1.00;;;11.10;99.90;;;;;;5052908;28;20044;-90
2023/11/02 09:15:59;;;;;;;2.97;1.20;;;11.30;99.90;;;;;;5049649;28;20037;-89
2023/11/02 09:18:26;;;;;;;2.00;0.90;;;11.30;99.90;;;;;;5050731;28;20104;-89
2023/11/02 09:20:52;;;;;;;3.10;1.08;;;11.40;99.90;;;;;;5038319;28;20053;-90
2023/11/02 09:23:18;;;;;;;2.83;1.10;;;11.50;99.90;;;;;;5035766;28;20056;-89
2023/11/02 09:25:46;;;;;;;2.88;1.00;;;11.50;99.90;;;;;;5050181;28;20055;-90
2023/11/02 09:28:16;;;;;;;3.80;1.00;;;11.60;99.90;;;;;;5034159;28;20044;-89
2023/11/02 09:30:43;;;;;;;2.53;0.90;;;11.70;99.90;;;;;;5049051;28;20040;-89
2023/11/02 09:33:09;;;;;;;1.90;1.17;;;11.70;99.90;;;;;;5051539;28;20021;-89
2023/11/02 09:35:34;;;;;;;2.33;1.00;;;11.80;99.90;;;;;;5035269;28;20090;-89
2023/11/02 09:38:00;;;;;;;5.57;1.00;;;11.80;99.90;;;;;;5051353;28;20025;-89
2023/11/02 09:40:26;;;;;;;3.53;1.00;;;11.90;99.90;;;;;;5051682;28;20164;-89
2023/11/02 09:42:52;;;;;;;4.07;0.95;;;11.90;99.90;;;;;;5034238;28;20071;-89
2023/11/02 09:45:18;;;;;;;4.85;1.00;;;11.90;99.90;;;;;;5035520;28;20039;-89
2023/11/02 09:47:45;;;;;;;3.15;1.10;;;11.90;99.90;;;;;;5052596;28;20049;-88
2023/11/02 09:50:14;;;;;;;4.15;1.10;;;12.00;99.90;;;;;;5051927;28;20063;-89
2023/11/02 09:52:40;;;;;;;4.13;1.10;;;12.10;99.90;;;;;;5032033;28;20037;-90
2023/11/02 09:55:07;;;;;;;5.35;1.08;;;12.20;99.90;;;;;;5034116;28;20175;-89
2023/11/02 09:57:34;;;;;;;3.65;1.20;;;12.30;99.90;;;;;;5044707;28;20029;-88
2023/11/02 10:00:00;;;;;;;3.88;0.90;;;12.30;99.90;;;;;;5033666;28;20484;-90
2023/11/02 10:02:26;;;;;;;2.28;1.08;;;12.30;99.90;;;;;;5032720;28;20037;-89
2023/11/02 10:04:52;;;;;;;3.50;0.90;;;12.40;99.90;;;;;;5052096;28;20029;-88
2023/11/02 10:07:18;;;;;;;3.88;0.98;;;12.40;99.90;;;;;;5053311;28;20025;-87
2023/11/02 10:09:44;;;;;;;3.15;1.00;;;12.50;99.90;;;;;;5054470;28;20032;-89
2023/11/02 10:12:10;;;;;;;1.90;0.90;;;12.50;99.90;;;;;;5030775;28;20030;-88
2023/11/02 10:14:36;;;;;;;3.97;0.95;;;12.50;99.90;;;;;;5032803;28;20055;-88
2023/11/02 10:17:05;;;;;;;3.55;1.20;;;12.60;99.90;;;;;;5052969;28;20524;-89
2023/11/02 10:19:32;;;;;;;4.18;1.27;;;12.60;99.90;;;;;;5032681;28;20444;-88
2023/11/02 10:21:58;;;;;;;2.65;1.02;;;12.60;99.90;;;;;;5050488;28;20132;-88
2023/11/02 10:24:35;;;;;;;3.00;1.00;;;12.70;99.90;;;;;;5031594;28;20029;-88
2023/11/02 10:27:05;;;;;;;5.15;1.10;;;12.70;99.90;;;;;;5022161;28;20030;-89
2023/11/02 10:29:32;;;;;;;3.10;1.00;;;12.80;99.90;;;;;;5037885;28;20021;-87
2023/11/02 10:31:59;;;;;;;2.13;1.15;;;12.80;99.90;;;;;;5044399;28;20052;-88
2023/11/02 10:34:28;;;;;;;4.13;0.98;;;12.90;99.90;;;;;;5029358;28;20059;-88
2023/11/02 10:36:56;;;;;;;3.22;0.90;;;13.00;99.90;;;;;;5033437;28;20041;-87
2023/11/02 10:39:23;;;;;;;3.35;0.90;;;13.10;99.90;;;;;;5045884;28;20094;-87
2023/11/02 10:42:00;;;;;;;4.53;1.10;;;13.10;99.90;;;;;;5050446;28;20157;-86
2023/11/02 10:44:31;;;;;;;3.90;1.00;;;13.10;99.90;;;;;;5032895;28;20094;-87
2023/11/02 10:47:01;;;;;;;5.03;1.10;;;13.20;99.90;;;;;;5032345;28;20033;-86
2023/11/02 10:49:35;;;;;;;3.20;0.93;;;13.20;99.90;;;;;;5049190;28;20187;-87
2023/11/02 10:52:07;;;;;;;2.97;0.95;;;13.20;99.90;;;;;;5046201;28;20033;-88
2023/11/02 10:54:38;;;;;;;4.35;0.95;;;13.20;99.90;;;;;;5051167;28;20028;-87
2023/11/02 10:57:16;;;;;;;3.13;0.98;;;13.30;99.90;;;;;;5056581;28;20048;-88
2023/11/02 10:59:43;;;;;;;2.28;0.90;;;13.40;99.90;;;;;;5035884;28;20029;-87
2023/11/02 11:02:11;;;;;;;5.35;1.23;;;13.40;99.90;;;;;;5032368;28;20039;-87
2023/11/02 11:04:41;;;;;;;4.53;1.30;;;13.50;99.90;;;;;;5039010;28;20028;-86
2023/11/02 11:07:09;;;;;;;4.23;1.30;;;13.60;99.90;;;;;;5050890;28;20024;-87
2023/11/02 11:09:37;;;;;;;6.47;1.10;;;13.60;99.90;;;;;;5032200;28;20021;-87
2023/11/02 11:12:04;;;;;;;2.60;1.30;;;13.60;99.90;;;;;;5050233;28;20025;-87
2023/11/02 11:14:31;;;;;;;3.13;1.08;;;13.70;99.90;;;;;;5048730;28;20107;-88
2023/11/02 11:16:57;;;;;;;2.10;0.80;;;13.80;99.90;;;;;;5048485;28;20111;-88
2023/11/02 11:19:28;;;;;;;4.68;1.02;;;13.70;99.90;;;;;;5050296;28;20459;-88
2023/11/02 11:21:55;;;;;;;;;;;13.70;99.90;;;;;;5040797;28;20041;-88
2023/11/02 11:24:32;;;;;;;2.15;0.80;;;13.70;99.90;;;;;;5051015;28;20287;-87
2023/11/02 11:26:59;;;;;;;3.78;1.00;;;13.80;99.90;;;;;;5044393;28;20449;-87
2023/11/02 11:29:35;;;;;;;6.50;1.52;;;13.70;99.90;;;;;;5052727;28;20027;-88
2023/11/02 11:32:03;;;;;;;5.72;0.95;;;13.70;99.90;;;;;;5049119;28;20507;-87
2023/11/02 11:34:58;;;;;;;6.00;1.10;;;13.70;99.90;;;;;;5044079;28;20025;-87
2023/11/02 11:37:47;;;;;;;6.38;1.08;;;13.70;99.90;;;;;;5034261;28;20036;-88
2023/11/02 11:40:19;;;;;;;4.50;1.10;;;13.70;99.90;;;;;;5050014;28;20087;-87
2023/11/02 11:43:15;;;;;;;5.07;1.23;;;13.50;99.90;;;;;;5051946;28;20244;-87
2023/11/02 11:45:45;;;;;;;3.03;0.90;;;13.60;99.90;;;;;;5052029;28;20111;-88
2023/11/02 11:48:11;;;;;;;;;;;13.50;99.90;;;;;;5051327;28;20076;-87
2023/11/02 11:50:42;;;;;;;3.35;0.90;;;13.70;99.90;;;;;;5050050;28;19908;-88
2023/11/02 11:53:08;;;;;;;5.88;1.20;;;14.30;99.90;;;;;;5031707;28;20496;-88
2023/11/02 11:55:38;;;;;;;7.50;1.13;;;14.50;99.90;;;;;;5033695;28;20032;-87
2023/11/02 11:58:06;;;;;;;;;;;14.30;99.90;;;;;;5030072;28;20033;-87
2023/11/02 12:00:32;;;;;;;4.10;1.20;;;14.40;99.90;;;;;;5046877;28;19933;-88
2023/11/02 12:03:04;;;;;;;3.28;0.98;;;14.40;99.90;;;;;;5051993;28;20029;-88
2023/11/02 12:05:44;;;;;;;3.35;0.90;;;14.30;99.90;;;;;;5051388;28;20052;-88
2023/11/02 12:08:11;;;;;;;4.45;1.38;;;14.40;99.90;;;;;;5048584;28;20028;-88
2023/11/02 12:10:52;;;;;;;3.58;1.00;;;15.10;99.90;;;;;;5034418;28;20041;-88
2023/11/02 12:13:18;;;;;;;2.45;0.82;;;15.50;99.90;;;;;;5053657;28;20051;-88
2023/11/02 12:16:01;;;;;;;6.38;1.20;;;15.30;99.90;;;;;;5048891;28;20041;-87
2023/11/02 12:18:32;;;;;;;7.80;1.08;;;15.10;99.90;;;;;;5034532;28;20094;-88
2023/11/02 12:21:09;;;;;;;3.63;1.00;;;15.20;99.90;;;;;;5047112;28;20021;-88
2023/11/02 12:23:39;;;;;;;6.70;1.30;;;15.10;99.90;;;;;;5026857;28;20025;-88
2023/11/02 12:26:06;;;;;;;3.65;0.98;;;15.50;99.90;;;;;;5048850;28;20029;-88
2023/11/02 12:28:52;;;;;;;5.75;0.90;;;15.90;99.10;;;;;;5049379;28;20035;-87
2023/11/02 12:31:34;;;;;;;7.15;1.10;;;16.00;98.50;;;;;;5050389;28;20104;-87
2023/11/02 12:34:11;;;;;;;5.05;1.00;;;15.80;99.40;;;;;;5049206;28;20136;-88
2023/11/02 12:36:41;;;;;;;5.75;1.10;;;15.40;98.70;;;;;;5029439;28;20026;-88
2023/11/02 12:39:10;;;;;;;;;;;15.10;99.20;;;;;;5051701;28;20060;-88
2023/11/02 12:41:36;;;;;;;7.38;1.13;;;15.00;99.90;;;;;;5028824;28;19935;-88
2023/11/02 12:44:10;;;;;;;6.72;1.00;;;15.10;98.90;;;;;;5033954;28;20024;-88
2023/11/02 12:46:36;;;;;;;5.07;1.20;;;15.30;99.00;;;;;;5050318;28;20029;-88
2023/11/02 12:49:12;;;;;;;7.10;1.17;;;15.10;97.60;;;;;;5052151;28;20037;-88
2023/11/02 12:51:39;;;;;;;4.47;1.27;;;14.80;98.80;;;;;;5049748;28;20139;-88
2023/11/02 12:54:13;;;;;;;5.72;0.90;;;14.70;98.70;;;;;;5032297;28;20025;-87
2023/11/02 12:56:39;;;;;;;6.07;1.63;;;14.70;98.10;;;;;;5031524;28;20037;-88
2023/11/02 12:59:06;;;;;;;6.68;1.23;;;14.90;96.90;;;;;;5050567;28;20035;-87
2023/11/02 13:01:47;;;;;;;5.32;1.00;;;15.10;97.00;;;;;;5051125;28;20036;-88
2023/11/02 13:04:15;;;;;;;5.05;1.10;;;15.50;95.00;;;;;;5047012;28;20471;-87
2023/11/02 13:06:42;;;;;;;3.42;0.95;;;16.10;91.00;;;;;;5029386;28;20097;-88
2023/11/02 13:09:11;;;;;;;5.00;1.10;;;16.10;90.60;;;;;;5034256;28;20025;-87
2023/11/02 13:11:37;;;;;;;6.43;1.33;;;16.00;91.60;;;;;;5050192;28;20025;-87